Time;durP1;ratioP1;P1;durP2;ratioP2;P2;SDS_P1;SDS_P2;PMS_P1;PMS_P2;Temp;Humidity;BMP_temperature;BMP_pressure;BME280_temperature;BME280_humidity;BME280_pressure;Samples;Min_cycle;Max_cycle;Signal;HPM_P1;HPM_P2
2024/02/15 00:00:20;;;;;;;11.70;4.88;;;;;;;4.48;100.00;101546.59;5052717;28;20111;-68
2024/02/15 00:02:46;;;;;;;9.88;4.47;;;;;;;4.39;100.00;101549.66;5045231;28;20060;-68
2024/02/15 00:05:12;;;;;;;10.20;4.00;;;;;;;4.32;100.00;101556.88;5055667;28;20117;-68
2024/02/15 00:07:38;;;;;;;11.07;4.10;;;;;;;4.28;100.00;101560.53;5043519;28;20035;-68
2024/02/15 00:10:05;;;;;;;10.52;4.80;;;;;;;4.22;100.00;101570.34;5052642;28;20438;-68
2024/02/15 00:12:30;;;;;;;9.35;3.28;;;;;;;4.52;100.00;101565.34;5046298;28;20485;-68
2024/02/15 00:14:58;;;;;;;6.57;2.60;;;;;;;4.93;100.00;101564.00;5051356;28;20090;-68
2024/02/15 00:17:30;;;;;;;5.50;2.00;;;;;;;5.22;100.00;101564.19;5049545;28;20040;-67
2024/02/15 00:19:55;;;;;;;8.07;1.73;;;;;;;5.30;100.00;101560.25;5048215;28;20039;-68
2024/02/15 00:22:21;;;;;;;5.20;1.90;;;;;;;5.36;100.00;101566.03;5039836;28;20421;-67
2024/02/15 00:24:48;;;;;;;3.83;1.60;;;;;;;5.38;100.00;101565.03;5043777;28;20029;-67
2024/02/15 00:27:15;;;;;;;4.75;1.88;;;;;;;5.40;100.00;101575.28;5042146;28;20033;-67
2024/02/15 00:29:41;;;;;;;5.25;1.92;;;;;;;5.37;100.00;101570.28;5046870;28;20040;-67
2024/02/15 00:32:07;;;;;;;6.07;1.85;;;;;;;5.32;100.00;101565.34;5048680;28;20037;-67
2024/02/15 00:34:33;;;;;;;3.47;1.42;;;;;;;5.35;100.00;101570.34;5047107;28;20049;-67
2024/02/15 00:36:58;;;;;;;10.18;1.50;;;;;;;5.39;100.00;101564.09;5046223;28;20115;-67
2024/02/15 00:39:24;;;;;;;3.78;1.67;;;;;;;5.41;100.00;101564.84;5042058;28;20120;-68
2024/02/15 00:41:50;;;;;;;3.38;1.80;;;;;;;5.42;100.00;101561.34;5049066;28;20114;-67
2024/02/15 00:44:17;;;;;;;4.65;1.67;;;;;;;5.48;100.00;101566.19;5043732;28;20035;-67
2024/02/15 00:46:43;;;;;;;6.45;1.95;;;;;;;5.48;100.00;101557.59;5043657;28;20055;-68
2024/02/15 00:49:08;;;;;;;4.82;1.55;;;;;;;5.48;100.00;101561.00;5050914;28;20020;-67
2024/02/15 00:51:35;;;;;;;11.60;1.95;;;;;;;5.53;100.00;101559.00;5043615;28;20029;-67
2024/02/15 00:54:02;;;;;;;2.45;1.13;;;;;;;5.55;100.00;101552.00;5045954;28;20033;-67
2024/02/15 00:56:29;;;;;;;4.80;1.35;;;;;;;5.54;100.00;101546.91;5048236;28;20394;-67
2024/02/15 00:58:55;;;;;;;4.78;1.70;;;;;;;5.57;100.00;101544.16;5045411;28;20397;-67
2024/02/15 01:01:20;;;;;;;5.78;1.65;;;;;;;5.60;100.00;101544.81;5042538;28;20090;-68
2024/02/15 01:03:46;;;;;;;2.60;1.00;;;;;;;5.64;100.00;101542.91;5044713;28;20072;-67
2024/02/15 01:06:11;;;;;;;4.47;1.60;;;;;;;5.68;100.00;101545.19;5043010;28;20029;-67
2024/02/15 01:08:37;;;;;;;3.67;1.13;;;;;;;5.65;100.00;101536.81;5036497;28;20396;-68
2024/02/15 01:11:02;;;;;;;6.75;1.77;;;;;;;5.55;100.00;101549.41;5042163;28;20035;-67
2024/02/15 01:13:28;;;;;;;6.72;2.53;;;;;;;5.37;100.00;101550.44;5041425;28;20581;-68
2024/02/15 01:15:53;;;;;;;7.22;2.55;;;;;;;5.13;100.00;101550.03;5046929;28;20032;-68
2024/02/15 01:18:19;;;;;;;6.90;3.55;;;;;;;5.03;100.00;101545.44;5053369;28;20034;-67
2024/02/15 01:20:45;;;;;;;10.52;3.63;;;;;;;5.04;100.00;101547.13;5046059;28;20449;-67
2024/02/15 01:23:10;;;;;;;8.55;2.72;;;;;;;5.15;100.00;101537.88;5050060;28;20036;-68
2024/02/15 01:25:36;;;;;;;6.28;2.65;;;;;;;5.28;100.00;101538.00;5047960;28;20481;-68
2024/02/15 01:28:02;;;;;;;7.32;2.03;;;;;;;5.35;100.00;101544.50;5048800;28;20060;-68
2024/02/15 01:30:28;;;;;;;4.25;1.55;;;;;;;5.45;100.00;101535.34;5050538;28;20037;-67
2024/02/15 01:32:54;;;;;;;2.72;1.38;;;;;;;5.47;100.00;101524.91;5050408;28;20090;-68
2024/02/15 01:35:20;;;;;;;3.90;1.20;;;;;;;5.52;100.00;101526.31;5051216;28;20448;-67
2024/02/15 01:37:45;;;;;;;4.68;1.42;;;;;;;5.53;100.00;101524.56;5050131;28;20055;-68
2024/02/15 01:40:12;;;;;;;5.03;2.00;;;;;;;5.51;100.00;101524.66;5042430;28;20091;-68
2024/02/15 01:42:39;;;;;;;6.70;2.72;;;;;;;5.34;100.00;101525.59;5050916;28;20504;-68
2024/02/15 01:45:05;;;;;;;8.88;4.47;;;;;;;5.18;100.00;101531.72;5046286;28;20040;-68
2024/02/15 01:47:31;;;;;;;16.33;4.38;;;;;;;4.99;100.00;101522.38;5046700;28;20363;-67
2024/02/15 01:49:57;;;;;;;11.00;4.28;;;;;;;4.90;100.00;101522.84;5047198;28;20028;-68
2024/02/15 01:52:23;;;;;;;10.05;4.68;;;;;;;4.80;100.00;101520.84;5047690;28;20510;-68
2024/02/15 01:54:52;;;;;;;12.98;5.13;;;;;;;4.75;100.00;101522.84;5045762;28;20028;-68
2024/02/15 01:57:20;;;;;;;10.20;4.82;;;;;;;4.74;100.00;101521.16;5047894;28;20013;-68
2024/02/15 01:59:46;;;;;;;12.70;2.72;;;;;;;4.84;100.00;101523.19;5047109;28;20053;-68
2024/02/15 02:02:14;;;;;;;5.57;2.50;;;;;;;5.12;100.00;101519.13;5050129;28;20063;-68
2024/02/15 02:04:41;;;;;;;5.90;1.38;;;;;;;5.36;100.00;101522.91;5047664;28;20037;-68
2024/02/15 02:07:07;;;;;;;2.92;1.15;;;;;;;5.49;100.00;101529.06;5052561;28;20060;-68
2024/02/15 02:09:32;;;;;;;4.18;1.35;;;;;;;5.53;100.00;101527.97;5043058;28;20025;-68
2024/02/15 02:11:58;;;;;;;3.55;1.08;;;;;;;5.52;100.00;101520.31;5044254;28;20384;-68
2024/02/15 02:14:24;;;;;;;5.05;1.20;;;;;;;5.55;100.00;101520.97;5050252;28;20044;-68
2024/02/15 02:16:49;;;;;;;2.83;1.23;;;;;;;5.58;100.00;101510.47;5045823;28;20032;-68
2024/02/15 02:19:17;;;;;;;5.65;1.55;;;;;;;5.60;100.00;101508.63;5049808;28;20040;-68
2024/02/15 02:21:44;;;;;;;6.03;1.83;;;;;;;5.51;100.00;101511.72;5045674;28;20041;-68
2024/02/15 02:24:23;;;;;;;3.28;1.40;;;;;;;5.52;100.00;101508.22;5048495;28;20032;-68
2024/02/15 02:26:49;;;;;;;4.55;1.23;;;;;;;5.57;100.00;101508.81;5046637;28;20067;-68
2024/02/15 02:29:16;;;;;;;2.45;0.50;;;;;;;5.63;100.00;101508.47;5048103;28;20052;-68
2024/02/15 02:31:42;;;;;;;6.88;2.20;;;;;;;5.57;100.00;101503.63;5046198;28;20037;-68
2024/02/15 02:34:08;;;;;;;4.20;1.90;;;;;;;5.45;100.00;101508.66;5048395;28;20037;-67
2024/02/15 02:36:34;;;;;;;18.08;6.53;;;;;;;5.25;100.00;101512.34;5044747;28;20029;-68
2024/02/15 02:39:00;;;;;;;14.30;5.90;;;;;;;5.17;100.00;101509.38;5046287;28;20025;-68
2024/02/15 02:41:28;;;;;;;5.95;2.92;;;;;;;5.26;100.00;101508.84;5049229;28;20032;-68
2024/02/15 02:43:57;;;;;;;4.13;1.33;;;;;;;5.42;100.00;101507.06;5049155;28;20037;-68
2024/02/15 02:46:22;;;;;;;5.63;1.25;;;;;;;5.54;100.00;101493.47;5054416;28;20043;-68
2024/02/15 02:48:48;;;;;;;3.85;1.02;;;;;;;5.64;100.00;101489.44;5051052;28;20386;-68
2024/02/15 02:51:15;;;;;;;3.08;0.90;;;;;;;5.73;100.00;101488.06;5047868;28;20033;-68
2024/02/15 02:53:41;;;;;;;2.78;0.98;;;;;;;5.79;100.00;101492.03;5049725;28;20029;-68
2024/02/15 02:56:08;;;;;;;5.95;1.45;;;;;;;5.80;100.00;101485.94;5051154;28;20021;-68
2024/02/15 02:58:34;;;;;;;3.47;1.40;;;;;;;5.80;100.00;101480.78;5050772;28;20037;-68
2024/02/15 03:01:00;;;;;;;3.20;0.98;;;;;;;5.85;100.00;101481.34;5056617;28;20036;-68
2024/02/15 03:03:26;;;;;;;2.85;0.93;;;;;;;5.80;100.00;101473.00;5052698;28;20045;-68
2024/02/15 03:05:51;;;;;;;7.18;1.17;;;;;;;5.80;100.00;101462.66;5045212;28;20043;-68
2024/02/15 03:08:17;;;;;;;2.63;1.02;;;;;;;5.82;100.00;101459.06;5041253;28;20490;-68
2024/02/15 03:10:43;;;;;;;3.53;1.15;;;;;;;5.84;100.00;101453.81;5042243;28;20749;-68
2024/02/15 03:13:09;;;;;;;4.43;0.98;;;;;;;5.84;100.00;101462.41;5050610;28;20041;-68
2024/02/15 03:15:35;;;;;;;4.03;1.30;;;;;;;5.80;100.00;101460.09;5048540;28;20402;-68
2024/02/15 03:18:06;;;;;;;2.90;1.27;;;;;;;5.75;100.00;101464.69;5049849;28;20025;-68
2024/02/15 03:20:33;;;;;;;3.65;0.98;;;;;;;5.70;100.00;101461.53;5050088;28;20465;-68
2024/02/15 03:23:00;;;;;;;7.72;1.35;;;;;;;5.65;100.00;101460.06;5047216;28;20037;-68
2024/02/15 03:25:28;;;;;;;1.60;1.13;;;;;;;5.60;100.00;101471.59;5049786;28;20039;-68
2024/02/15 03:27:59;;;;;;;2.80;1.00;;;;;;;5.57;100.00;101466.59;5043777;28;20052;-68
2024/02/15 03:30:26;;;;;;;3.42;1.17;;;;;;;5.54;100.00;101469.38;5044986;28;20127;-68
2024/02/15 03:32:53;;;;;;;4.55;1.52;;;;;;;5.49;100.00;101461.88;5050130;28;20025;-68
2024/02/15 03:35:20;;;;;;;7.78;1.33;;;;;;;5.46;100.00;101468.97;5050239;28;20049;-68
2024/02/15 03:37:46;;;;;;;5.15;0.93;;;;;;;5.43;100.00;101469.97;5048246;28;20028;-68
2024/02/15 03:40:12;;;;;;;4.47;1.10;;;;;;;5.45;100.00;101468.13;5053575;28;20040;-68
2024/02/15 03:42:37;;;;;;;4.05;1.05;;;;;;;5.50;100.00;101475.63;5044394;28;20056;-68
2024/02/15 03:45:06;;;;;;;4.65;1.17;;;;;;;5.53;100.00;101471.13;5043910;28;20025;-68
2024/02/15 03:47:33;;;;;;;4.22;0.93;;;;;;;5.52;100.00;101466.03;5048064;28;20446;-68
2024/02/15 03:49:59;;;;;;;4.68;1.85;;;;;;;5.51;100.00;101477.28;5044516;28;20084;-68
2024/02/15 03:52:24;;;;;;;5.88;0.80;;;;;;;5.52;100.00;101476.38;5049066;28;20444;-68
2024/02/15 03:54:50;;;;;;;4.88;0.75;;;;;;;5.56;100.00;101480.44;5042365;28;20029;-68
2024/02/15 03:57:17;;;;;;;5.18;1.35;;;;;;;5.54;100.00;101480.53;5044418;28;20445;-68
2024/02/15 03:59:42;;;;;;;1.92;0.73;;;;;;;5.58;100.00;101476.03;5049744;28;20040;-68
2024/02/15 04:02:14;;;;;;;2.97;1.13;;;;;;;5.64;100.00;101470.50;5036817;28;20029;-68
2024/02/15 04:04:42;;;;;;;1.95;0.90;;;;;;;5.66;100.00;101472.09;5050064;28;20056;-68
2024/02/15 04:07:08;;;;;;;3.90;1.20;;;;;;;5.58;100.00;101474.28;5045034;28;20028;-68
2024/02/15 04:09:35;;;;;;;5.28;1.10;;;;;;;5.43;100.00;101475.13;5039000;28;20040;-68
2024/02/15 04:12:01;;;;;;;1.95;1.00;;;;;;;5.25;100.00;101468.41;5042551;28;20394;-68
2024/02/15 04:14:27;;;;;;;5.18;1.13;;;;;;;5.10;100.00;101475.28;5038229;28;20113;-68
2024/02/15 04:16:53;;;;;;;4.22;1.45;;;;;;;4.99;100.00;101478.47;5048510;28;20022;-68
2024/02/15 04:19:21;;;;;;;3.42;1.63;;;;;;;4.86;100.00;101476.63;5042899;28;20029;-68
2024/02/15 04:21:47;;;;;;;4.00;1.55;;;;;;;4.73;100.00;101478.19;5032355;28;20494;-68
2024/02/15 04:24:14;;;;;;;9.43;2.22;;;;;;;4.60;100.00;101483.19;5038880;28;20184;-68
2024/02/15 04:26:40;;;;;;;5.38;2.13;;;;;;;4.49;100.00;101476.03;5045123;28;20107;-68
2024/02/15 04:29:07;;;;;;;4.13;2.33;;;;;;;4.55;100.00;101485.19;5042727;28;20127;-68
2024/02/15 04:31:36;;;;;;;5.78;2.35;;;;;;;4.65;100.00;101487.22;5036856;28;20052;-68
2024/02/15 04:34:03;;;;;;;4.55;1.45;;;;;;;4.70;100.00;101484.38;5041943;28;20056;-68
2024/02/15 04:36:33;;;;;;;2.72;1.50;;;;;;;4.87;100.00;101488.63;5039909;28;20025;-68
2024/02/15 04:39:01;;;;;;;3.65;1.67;;;;;;;5.03;100.00;101486.03;5042187;28;20052;-68
2024/02/15 04:41:27;;;;;;;3.03;1.20;;;;;;;5.14;100.00;101483.69;5035155;28;20116;-68
2024/02/15 04:43:52;;;;;;;2.55;1.10;;;;;;;5.19;100.00;101492.88;5043799;28;20120;-68
2024/02/15 04:46:21;;;;;;;2.05;0.70;;;;;;;5.16;100.00;101494.78;5037105;28;20386;-68
2024/02/15 04:48:49;;;;;;;2.83;1.05;;;;;;;5.13;100.00;101500.13;5052702;28;20036;-68
2024/02/15 04:51:14;;;;;;;2.30;1.25;;;;;;;5.05;100.00;101497.13;5035926;28;20059;-68
2024/02/15 04:53:41;;;;;;;3.88;1.15;;;;;;;5.05;100.00;101507.44;5041429;28;20041;-68
2024/02/15 04:56:16;;;;;;;1.98;0.82;;;;;;;5.05;100.00;101505.69;5047395;28;20029;-68
2024/02/15 04:58:45;;;;;;;2.88;1.20;;;;;;;5.10;100.00;101511.47;5044493;28;20767;-68
2024/02/15 05:01:17;;;;;;;4.40;1.40;;;;;;;5.10;100.00;101508.03;5045989;28;20119;-68
2024/02/15 05:03:43;;;;;;;3.20;1.08;;;;;;;5.15;100.00;101512.03;5048024;28;20068;-68
2024/02/15 05:06:10;;;;;;;2.40;0.80;;;;;;;5.19;100.00;101513.53;5044198;28;20471;-68
2024/02/15 05:08:42;;;;;;;5.90;1.08;;;;;;;5.17;100.00;101512.78;5035732;28;20075;-68
2024/02/15 05:11:14;;;;;;;8.07;1.25;;;;;;;5.21;100.00;101508.25;5034926;28;20036;-68
2024/02/15 05:13:40;;;;;;;5.93;1.08;;;;;;;5.18;100.00;101508.44;5032470;28;20048;-68
2024/02/15 05:16:06;;;;;;;3.50;0.75;;;;;;;5.18;100.00;101506.69;5031419;28;20109;-68
2024/02/15 05:18:31;;;;;;;5.22;1.13;;;;;;;5.19;100.00;101505.78;5055559;28;20059;-68
2024/02/15 05:20:57;;;;;;;2.92;0.85;;;;;;;5.25;100.00;101504.59;5041604;28;20129;-68
2024/02/15 05:23:23;;;;;;;2.17;0.85;;;;;;;5.26;100.00;101511.41;5051953;28;20056;-68
2024/02/15 05:25:48;;;;;;;3.25;0.95;;;;;;;5.23;100.00;101509.00;5041112;28;20455;-68
2024/02/15 05:28:14;;;;;;;2.78;0.75;;;;;;;5.23;100.00;101516.75;5040066;28;20037;-68
2024/02/15 05:30:39;;;;;;;2.17;0.50;;;;;;;5.22;100.00;101513.34;5033763;28;20056;-68
2024/02/15 05:33:10;;;;;;;1.90;0.80;;;;;;;5.21;100.00;101511.66;5048644;28;20032;-68
2024/02/15 05:35:39;;;;;;;3.22;1.05;;;;;;;5.20;100.00;101511.78;5041303;28;20057;-68
2024/02/15 05:38:06;;;;;;;2.75;1.13;;;;;;;5.16;100.00;101511.13;5035924;28;20541;-68
2024/02/15 05:40:32;;;;;;;1.85;0.90;;;;;;;5.17;100.00;101511.97;5030838;28;20541;-68
2024/02/15 05:42:58;;;;;;;2.30;0.85;;;;;;;5.13;100.00;101508.72;5037495;28;20141;-68
2024/02/15 05:45:26;;;;;;;3.70;1.10;;;;;;;5.11;100.00;101510.53;5048145;28;20110;-68
2024/02/15 05:47:55;;;;;;;3.00;1.45;;;;;;;5.06;100.00;101502.19;5040555;28;20025;-68
2024/02/15 05:50:21;;;;;;;3.55;1.00;;;;;;;5.05;100.00;101510.03;5039782;28;20216;-68
2024/02/15 05:52:51;;;;;;;2.13;1.00;;;;;;;5.03;100.00;101506.69;5031989;28;20501;-68
2024/02/15 05:55:18;;;;;;;2.63;0.60;;;;;;;5.07;100.00;101513.38;5035128;28;20029;-68
2024/02/15 05:57:44;;;;;;;4.20;1.10;;;;;;;5.07;100.00;101503.03;5036956;28;20029;-69
2024/02/15 06:00:11;;;;;;;2.22;0.82;;;;;;;5.07;100.00;101503.88;5048669;28;20474;-68
2024/02/15 06:02:36;;;;;;;7.65;0.90;;;;;;;5.11;100.00;101504.53;5045898;28;20444;-68
2024/02/15 06:05:04;;;;;;;6.13;0.70;;;;;;;5.14;100.00;101504.38;5055164;28;20037;-68
2024/02/15 06:07:31;;;;;;;3.30;0.70;;;;;;;5.15;100.00;101500.88;5048823;28;20047;-68
2024/02/15 06:09:57;;;;;;;3.72;1.08;;;;;;;5.17;100.00;101510.22;5041416;28;20048;-68
2024/02/15 06:12:23;;;;;;;4.38;1.15;;;;;;;5.21;100.00;101505.66;5044411;28;20102;-68
2024/02/15 06:14:48;;;;;;;7.03;1.05;;;;;;;5.21;100.00;101516.00;5044165;28;20135;-68
2024/02/15 06:17:14;;;;;;;5.20;1.10;;;;;;;5.19;100.00;101512.72;5042023;28;20470;-68
2024/02/15 06:19:39;;;;;;;6.35;1.05;;;;;;;5.21;100.00;101526.34;5046593;28;20040;-68
2024/02/15 06:22:05;;;;;;;5.22;1.25;;;;;;;5.18;100.00;101529.13;5052408;28;20033;-68
2024/02/15 06:24:30;;;;;;;11.68;2.25;;;;;;;5.06;100.00;101522.03;5044395;28;20550;-68
2024/02/15 06:26:59;;;;;;;8.57;2.78;;;;;;;4.88;100.00;101529.84;5051273;28;20041;-68
2024/02/15 06:40:23;;;;;;;9.40;2.83;;;;;;;4.96;100.00;101530.28;5047712;28;20048;-68
2024/02/15 06:42:49;;;;;;;7.18;3.53;;;;;;;4.89;100.00;101531.50;5047369;28;20038;-68
2024/02/15 06:45:16;;;;;;;6.43;4.18;;;;;;;4.93;100.00;101529.59;5045909;28;20398;-68
2024/02/15 06:47:45;;;;;;;6.25;3.33;;;;;;;4.95;100.00;101533.78;5048039;28;20144;-68
2024/02/15 06:50:13;;;;;;;7.07;3.55;;;;;;;4.99;100.00;101530.13;5048628;28;20035;-68
2024/02/15 06:52:42;;;;;;;9.90;4.47;;;;;;;4.96;100.00;101530.28;5040054;28;20033;-68
2024/02/15 06:55:08;;;;;;;11.68;4.50;;;;;;;5.02;100.00;101536.03;5048567;28;20090;-68
2024/02/15 06:57:37;;;;;;;6.07;2.10;;;;;;;5.13;100.00;101531.13;5043156;28;20053;-68
2024/02/15 07:00:09;;;;;;;5.28;1.60;;;;;;;5.40;100.00;101526.16;5049050;28;20439;-68
2024/02/15 07:02:35;;;;;;;5.68;0.85;;;;;;;5.68;100.00;101527.09;5051461;28;20355;-68
2024/02/15 07:05:02;;;;;;;8.07;1.02;;;;;;;5.93;100.00;101530.91;5047000;28;20071;-68
2024/02/15 07:07:28;;;;;;;3.20;1.20;;;;;;;6.06;100.00;101531.03;5050870;28;20433;-68
2024/02/15 07:09:54;;;;;;;5.93;1.08;;;;;;;6.13;100.00;101527.16;5056045;28;20029;-68
2024/02/15 07:12:21;;;;;;;1.77;0.70;;;;;;;6.21;100.00;101535.28;5052065;28;20105;-68
2024/02/15 07:14:47;;;;;;;5.57;0.68;;;;;;;6.27;100.00;101528.00;5052377;28;20445;-68
2024/02/15 07:17:13;;;;;;;4.75;0.90;;;;;;;6.28;100.00;101527.06;5053060;28;20746;-68
2024/02/15 07:19:44;;;;;;;0.90;0.50;;;;;;;6.31;99.73;101531.22;5047578;28;20039;-68
2024/02/15 07:22:10;;;;;;;3.72;0.82;;;;;;;6.37;98.78;101542.97;5062815;28;20079;-68
2024/02/15 07:24:38;;;;;;;2.35;0.77;;;;;;;6.44;97.84;101541.69;5053953;28;20030;-69
2024/02/15 07:27:04;;;;;;;4.32;1.23;;;;;;;6.47;98.26;101546.69;5048045;28;20037;-69
2024/02/15 07:29:31;;;;;;;1.27;0.57;;;;;;;6.54;98.09;101548.81;5047470;28;20043;-69
2024/02/15 07:31:57;;;;;;;4.40;0.90;;;;;;;6.64;97.54;101551.66;5050907;28;20068;-69
2024/02/15 07:34:22;;;;;;;2.75;0.80;;;;;;;6.75;97.53;101551.84;5049724;28;20053;-69
2024/02/15 07:36:48;;;;;;;5.60;0.70;;;;;;;6.75;96.08;101551.03;5048605;28;20029;-69
2024/02/15 07:39:22;;;;;;;17.38;1.55;;;;;;;6.76;96.49;101543.16;5050505;28;20029;-69
2024/02/15 07:41:49;;;;;;;2.42;0.95;;;;;;;6.77;95.81;101550.00;5038833;28;20040;-69
2024/02/15 07:44:14;;;;;;;3.13;1.02;;;;;;;6.80;95.76;101546.41;5052097;28;20079;-69
2024/02/15 07:46:41;;;;;;;1.85;0.68;;;;;;;6.86;97.26;101548.63;5046538;28;20033;-69
2024/02/15 07:49:08;;;;;;;4.63;0.85;;;;;;;6.92;96.86;101540.47;5052594;28;20037;-69
2024/02/15 07:51:33;;;;;;;1.27;0.47;;;;;;;7.05;95.21;101537.94;5046354;28;20515;-68
2024/02/15 07:53:59;;;;;;;1.95;0.70;;;;;;;7.24;94.67;101534.09;5044665;28;20037;-68
2024/02/15 07:56:25;;;;;;;2.03;0.50;;;;;;;7.36;92.87;101527.31;5041620;28;20116;-69
2024/02/15 07:58:51;;;;;;;1.88;0.70;;;;;;;7.48;93.27;101526.53;5045619;28;20111;-68
2024/02/15 08:01:19;;;;;;;3.95;1.10;;;;;;;7.54;92.25;101522.69;5043331;28;20067;-68
2024/02/15 08:03:45;;;;;;;4.70;1.05;;;;;;;7.50;91.38;101524.66;5040207;28;20036;-68
2024/02/15 08:06:14;;;;;;;2.80;0.68;;;;;;;7.50;93.47;101535.03;5040222;28;20478;-68
2024/02/15 08:08:41;;;;;;;4.40;0.73;;;;;;;7.46;93.31;101528.38;5047003;28;20035;-68
2024/02/15 08:11:14;;;;;;;3.45;0.63;;;;;;;7.51;91.98;101530.69;5047945;28;20025;-67
2024/02/15 08:13:43;;;;;;;4.60;0.75;;;;;;;7.60;91.59;101538.66;5049592;28;20028;-67
2024/02/15 08:16:08;;;;;;;1.75;0.77;;;;;;;7.65;91.79;101539.22;5052988;28;20493;-66
2024/02/15 08:18:35;;;;;;;4.63;1.00;;;;;;;7.72;91.17;101542.25;5042779;28;20087;-66
2024/02/15 08:21:01;;;;;;;2.28;0.68;;;;;;;7.80;90.86;101531.38;5047605;28;20025;-66
2024/02/15 08:23:27;;;;;;;1.52;0.80;;;;;;;7.77;90.78;101527.22;5047658;28;20088;-66
2024/02/15 08:25:53;;;;;;;3.72;0.52;;;;;;;7.75;90.62;101525.66;5038435;28;20055;-66
2024/02/15 08:28:20;;;;;;;2.97;0.80;;;;;;;7.80;91.37;101521.81;5042882;28;20098;-67
2024/02/15 08:30:46;;;;;;;3.95;1.08;;;;;;;7.86;90.82;101515.41;5045215;28;20044;-66
2024/02/15 08:33:12;;;;;;;7.15;1.40;;;;;;;7.88;90.41;101516.13;5047847;28;20025;-66
2024/02/15 08:35:39;;;;;;;2.33;0.90;;;;;;;7.89;90.64;101508.25;5044422;28;20059;-66
2024/02/15 08:38:06;;;;;;;6.00;1.15;;;;;;;7.92;91.87;101510.63;5044500;28;20040;-66
2024/02/15 08:40:32;;;;;;;2.65;0.60;;;;;;;8.10;88.48;101513.75;5040511;28;20033;-66
2024/02/15 08:42:57;;;;;;;1.83;0.60;;;;;;;8.17;89.87;101519.34;5044440;28;20036;-66
2024/02/15 08:45:23;;;;;;;1.58;0.50;;;;;;;8.28;89.48;101511.69;5045521;28;20075;-66
2024/02/15 08:47:51;;;;;;;2.85;0.52;;;;;;;8.34;88.89;101511.28;5048252;28;20029;-67
2024/02/15 08:50:18;;;;;;;2.80;0.65;;;;;;;8.45;88.73;101518.34;5037979;28;20035;-66
2024/02/15 08:52:44;;;;;;;1.88;1.05;;;;;;;8.50;89.03;101524.06;5044565;28;20029;-66
2024/02/15 08:55:14;;;;;;;2.10;0.70;;;;;;;8.52;88.83;101514.38;5049067;28;20039;-66
2024/02/15 08:57:40;;;;;;;2.15;0.73;;;;;;;8.57;87.46;101512.28;5048932;28;20036;-67
2024/02/15 09:00:13;;;;;;;4.15;0.40;;;;;;;8.77;84.70;101519.53;5044227;28;20394;-66
2024/02/15 09:02:45;;;;;;;1.52;0.40;;;;;;;8.81;87.52;101513.19;5048328;28;20024;-66
2024/02/15 09:05:14;;;;;;;2.65;0.47;;;;;;;8.80;85.95;101511.53;5047088;28;20512;-66
2024/02/15 09:07:41;;;;;;;1.73;0.43;;;;;;;8.77;85.95;101519.53;5047314;28;20040;-66
2024/02/15 09:10:09;;;;;;;3.40;0.60;;;;;;;8.82;88.58;101514.84;5048049;28;20511;-66
2024/02/15 09:12:36;;;;;;;1.90;0.50;;;;;;;8.88;88.01;101517.03;5048968;28;20249;-66
2024/02/15 09:15:03;;;;;;;3.45;0.50;;;;;;;8.93;84.52;101511.50;5048601;28;20041;-66
2024/02/15 09:17:31;;;;;;;0.63;0.40;;;;;;;9.09;85.15;101514.66;5042945;28;20383;-66
2024/02/15 09:19:57;;;;;;;2.22;0.50;;;;;;;9.11;84.82;101511.94;5041727;28;20029;-66
2024/02/15 09:22:22;;;;;;;4.70;0.68;;;;;;;9.10;85.69;101510.28;5042349;28;20026;-66
2024/02/15 09:24:48;;;;;;;2.40;0.75;;;;;;;9.19;85.38;101512.25;5047394;28;20087;-67
2024/02/15 09:27:13;;;;;;;2.17;0.40;;;;;;;9.23;86.51;101514.50;5043845;28;20060;-67
2024/02/15 09:29:40;;;;;;;9.07;0.77;;;;;;;9.18;89.11;101513.19;5048580;28;20033;-66
2024/02/15 09:32:06;;;;;;;3.20;0.50;;;;;;;9.25;88.23;101517.84;5045135;28;20057;-66
2024/02/15 09:34:32;;;;;;;2.05;0.82;;;;;;;9.33;89.13;101514.69;5037526;28;20118;-66
2024/02/15 09:36:58;;;;;;;2.75;0.70;;;;;;;9.39;89.90;101521.22;5045183;28;20052;-66
2024/02/15 09:39:23;;;;;;;4.13;0.70;;;;;;;9.47;90.07;101517.09;5053633;28;20087;-66
2024/02/15 09:41:58;;;;;;;3.10;0.63;;;;;;;9.57;84.84;101520.69;5044976;28;20452;-66
2024/02/15 09:44:27;;;;;;;3.33;0.60;;;;;;;9.50;89.23;101518.63;5053707;28;20043;-66
2024/02/15 09:47:03;;;;;;;5.72;0.68;;;;;;;9.48;88.31;101512.72;5041654;28;20057;-66
2024/02/15 09:49:29;;;;;;;1.88;0.63;;;;;;;9.62;89.39;101521.19;5043552;28;20041;-66
2024/02/15 09:51:56;;;;;;;1.58;0.55;;;;;;;9.67;91.43;101517.41;5033758;28;20029;-66
2024/02/15 09:54:22;;;;;;;3.92;0.60;;;;;;;9.65;91.41;101515.75;5045598;28;20482;-67
2024/02/15 09:56:51;;;;;;;1.83;0.43;;;;;;;9.75;92.73;101517.69;5049513;28;20162;-66
2024/02/15 09:59:17;;;;;;;2.13;0.63;;;;;;;9.83;92.72;101510.97;5041383;28;20039;-66
2024/02/15 10:01:47;;;;;;;2.35;0.75;;;;;;;9.85;93.79;101506.47;5036828;28;20037;-66
2024/02/15 10:04:15;;;;;;;2.20;0.47;;;;;;;9.77;94.26;101506.22;5040287;28;20512;-66
2024/02/15 10:06:42;;;;;;;1.60;0.47;;;;;;;9.68;93.77;101508.66;5042820;28;20037;-66
2024/02/15 10:09:30;;;;;;;1.58;0.47;;;;;;;9.70;91.93;101504.19;5048205;28;20028;-66
2024/02/15 10:12:00;;;;;;;4.15;1.00;;;;;;;9.83;93.54;101495.34;5044872;28;20159;-66
2024/02/15 10:14:26;;;;;;;1.25;0.45;;;;;;;9.87;93.92;101501.16;5045198;28;20037;-66
2024/02/15 10:16:56;;;;;;;1.70;0.50;;;;;;;9.81;94.97;101496.41;5041301;28;20027;-66
2024/02/15 10:19:25;;;;;;;1.42;0.68;;;;;;;9.76;93.48;101494.16;5034935;28;20175;-66
2024/02/15 10:21:55;;;;;;;1.80;0.60;;;;;;;9.74;95.68;101485.63;5044016;28;20474;-66
2024/02/15 10:24:24;;;;;;;2.42;0.70;;;;;;;9.84;94.36;101486.59;5042468;28;20079;-65
2024/02/15 10:26:49;;;;;;;2.42;0.60;;;;;;;9.96;93.07;101480.44;5040617;28;20827;-66
2024/02/15 10:29:17;;;;;;;3.30;0.68;;;;;;;10.07;92.77;101477.03;5040143;28;20055;-66
2024/02/15 10:32:01;;;;;;;3.78;0.65;;;;;;;10.21;89.63;101471.63;5043760;28;20025;-66
2024/02/15 10:34:28;;;;;;;1.17;0.50;;;;;;;10.43;88.04;101472.56;5031790;28;20136;-66
2024/02/15 10:37:16;;;;;;;1.10;0.50;;;;;;;10.36;90.57;101468.81;5036670;28;20108;-66
2024/02/15 10:39:42;;;;;;;1.52;0.82;;;;;;;10.29;92.21;101465.84;5043140;28;20387;-66
2024/02/15 10:42:10;;;;;;;1.75;0.57;;;;;;;10.23;93.12;101467.13;5038685;28;20090;-66
2024/02/15 10:44:38;;;;;;;3.22;0.60;;;;;;;10.18;93.31;101458.81;5043406;28;20405;-66
2024/02/15 10:47:06;;;;;;;2.55;0.90;;;;;;;10.23;92.05;101461.94;5044075;28;20033;-66
2024/02/15 10:49:34;;;;;;;1.75;0.70;;;;;;;10.29;93.22;101453.66;5043886;28;20510;-66
2024/02/15 10:52:04;;;;;;;1.40;0.55;;;;;;;10.34;92.81;101455.06;5044336;28;20174;-66
2024/02/15 10:54:42;;;;;;;1.75;0.60;;;;;;;10.38;93.31;101449.50;5035934;28;20032;-66
2024/02/15 10:57:10;;;;;;;2.88;0.77;;;;;;;10.43;93.33;101444.75;5032977;28;20041;-66
2024/02/15 10:59:41;;;;;;;6.93;0.77;;;;;;;10.52;93.62;101445.81;5034233;28;20033;-67
2024/02/15 11:02:29;;;;;;;3.35;1.10;;;;;;;10.60;92.28;101448.63;5045542;28;20190;-66
2024/02/15 11:04:58;;;;;;;3.28;1.10;;;;;;;10.64;93.35;101444.84;5035482;28;20067;-66
2024/02/15 11:07:28;;;;;;;3.25;0.80;;;;;;;10.69;94.16;101445.31;5038167;28;20033;-66
2024/02/15 11:09:55;;;;;;;4.15;1.20;;;;;;;10.70;91.21;101444.38;5043678;28;20490;-66
2024/02/15 11:12:23;;;;;;;4.30;1.23;;;;;;;10.79;91.05;101441.03;5044718;28;20033;-66
2024/02/15 11:14:51;;;;;;;4.22;1.02;;;;;;;10.85;93.04;101437.09;5042772;28;20417;-66
2024/02/15 11:17:44;;;;;;;2.08;1.10;;;;;;;10.94;91.78;101431.97;5051381;28;20085;-65
2024/02/15 11:20:20;;;;;;;4.28;1.73;;;;;;;11.10;92.51;101433.34;5032743;28;20120;-66
2024/02/15 11:22:56;;;;;;;3.67;1.35;;;;;;;11.10;88.87;101426.34;5042575;28;20033;-65
2024/02/15 11:25:36;;;;;;;6.80;1.70;;;;;;;11.01;91.74;101416.66;5046303;28;20549;-65
2024/02/15 11:28:21;;;;;;;4.15;1.55;;;;;;;11.11;91.81;101424.56;5038009;28;20036;-65
2024/02/15 11:30:47;;;;;;;3.33;1.10;;;;;;;11.13;93.30;101422.66;5044348;28;20052;-65
2024/02/15 11:33:28;;;;;;;4.18;0.98;;;;;;;11.16;93.15;101414.59;5042815;28;20382;-65
2024/02/15 11:36:06;;;;;;;2.42;1.15;;;;;;;11.31;92.08;101410.72;5044060;28;20433;-67
2024/02/15 11:38:32;;;;;;;2.97;1.00;;;;;;;11.40;92.20;101409.94;5047605;28;20151;-67